createdAt,value
2022-08-24T00:02:06.238Z,2.03
2022-08-24T00:05:12.713Z,2.05
2022-08-24T00:11:20.399Z,1.80
2022-08-24T00:14:22.527Z,1.88
2022-08-24T00:17:25.531Z,2.13
2022-08-24T00:20:27.916Z,2.08
2022-08-24T00:23:31.143Z,1.95
2022-08-24T00:26:33.455Z,2.25
2022-08-24T00:29:36.094Z,1.92
2022-08-24T00:32:38.282Z,2.20
2022-08-24T00:35:40.480Z,2.08
2022-08-24T00:38:42.648Z,2.83
2022-08-24T00:41:47.164Z,2.20
2022-08-24T00:44:49.357Z,1.60
2022-08-24T00:47:59.458Z,2.42
2022-08-24T00:51:09.168Z,1.70
2022-08-24T00:54:16.995Z,2.15
2022-08-24T00:57:22.971Z,2.47
2022-08-24T01:00:31.645Z,1.70
2022-08-24T01:03:36.112Z,1.50
2022-08-24T01:06:38.545Z,1.88
2022-08-24T01:09:41.490Z,1.52
2022-08-24T01:13:00.114Z,3.33
2022-08-24T01:16:07.323Z,1.65
2022-08-24T01:19:38.306Z,2.55
2022-08-24T01:23:06.275Z,2.50
2022-08-24T01:26:13.154Z,1.55
2022-08-24T01:29:29.116Z,2.00
2022-08-24T01:32:33.187Z,2.05
2022-08-24T01:35:38.912Z,2.10
2022-08-24T01:38:41.625Z,2.22
2022-08-24T01:41:43.676Z,2.67
2022-08-24T01:44:46.929Z,1.88
2022-08-24T01:47:49.255Z,1.80
2022-08-24T01:50:52.815Z,2.40
2022-08-24T01:53:56.863Z,1.83
2022-08-24T01:56:59.778Z,1.65
2022-08-24T02:00:02.657Z,2.05
2022-08-24T02:03:15.148Z,2.10
2022-08-24T02:06:22.513Z,1.83
2022-08-24T02:09:25.036Z,1.75
2022-08-24T02:12:36.463Z,1.77
2022-08-24T02:15:42.673Z,1.63
2022-08-24T02:18:47.083Z,2.65
2022-08-24T02:21:49.445Z,1.83
2022-08-24T02:24:51.838Z,1.63
2022-08-24T02:27:53.899Z,2.13
2022-08-24T02:30:56.427Z,1.67
2022-08-24T02:33:59.006Z,2.00
2022-08-24T02:37:01.300Z,1.55
2022-08-24T02:40:05.959Z,2.03
2022-08-24T02:43:08.062Z,1.63
2022-08-24T02:46:18.309Z,1.88
2022-08-24T02:49:21.840Z,1.80
2022-08-24T02:52:25.109Z,1.73
2022-08-24T02:55:27.327Z,1.77
2022-08-24T02:58:29.484Z,2.20
2022-08-24T03:01:32.877Z,2.47
2022-08-24T03:04:35.150Z,2.38
2022-08-24T03:07:39.257Z,2.38
2022-08-24T03:10:41.709Z,2.50
2022-08-24T03:13:44.017Z,2.30
2022-08-24T03:16:47.238Z,2.42
2022-08-24T03:19:49.388Z,2.58
2022-08-24T03:22:52.636Z,3.05
2022-08-24T03:25:56.545Z,2.30
2022-08-24T03:28:59.031Z,2.15
2022-08-24T03:32:02.835Z,2.30
2022-08-24T03:35:05.766Z,2.60
2022-08-24T03:38:07.950Z,2.33
2022-08-24T03:41:11.289Z,2.78
2022-08-24T03:44:13.546Z,2.30
2022-08-24T03:47:15.678Z,2.38
2022-08-24T03:50:18.940Z,2.40
2022-08-24T03:53:21.559Z,2.15
2022-08-24T03:56:23.934Z,2.60
2022-08-24T03:59:26.234Z,2.95
2022-08-24T04:02:33.118Z,2.92
2022-08-24T04:05:37.179Z,2.90
2022-08-24T04:08:41.489Z,2.60
2022-08-24T04:11:45.639Z,3.30
2022-08-24T04:14:52.662Z,2.10
2022-08-24T04:17:55.026Z,2.75
2022-08-24T04:20:57.527Z,3.03
2022-08-24T04:24:01.402Z,3.05
2022-08-24T04:27:03.836Z,3.10
2022-08-24T04:30:08.104Z,3.20
2022-08-24T04:33:25.200Z,2.43
2022-08-24T04:36:27.373Z,2.65
2022-08-24T04:39:31.055Z,2.80
2022-08-24T04:42:37.561Z,2.92
2022-08-24T04:45:43.716Z,2.70
2022-08-24T04:48:47.980Z,2.55
2022-08-24T04:51:51.576Z,2.80
2022-08-24T04:54:53.897Z,2.38
2022-08-24T04:57:58.609Z,2.35
2022-08-24T05:01:01.300Z,2.70
2022-08-24T05:04:05.791Z,2.40
2022-08-24T05:07:08.536Z,2.45
2022-08-24T05:10:11.508Z,2.47
2022-08-24T05:13:15.322Z,2.72
2022-08-24T05:16:18.185Z,2.65
2022-08-24T05:19:21.365Z,2.20
2022-08-24T05:22:23.611Z,2.53
2022-08-24T05:25:29.343Z,2.70
2022-08-24T05:28:33.776Z,1.90
2022-08-24T05:31:36.041Z,2.53
2022-08-24T05:34:43.586Z,2.83
2022-08-24T05:37:45.918Z,2.80
2022-08-24T05:40:51.366Z,2.75
2022-08-24T05:43:57.646Z,3.42
2022-08-24T05:47:01.391Z,3.03
2022-08-24T05:50:04.848Z,2.08
2022-08-24T05:53:06.879Z,2.10
2022-08-24T05:56:13.446Z,2.58
2022-08-24T05:59:18.099Z,4.78
2022-08-24T06:02:21.228Z,3.50
2022-08-24T06:05:24.137Z,2.47
2022-08-24T06:08:26.574Z,2.83
2022-08-24T06:11:32.749Z,2.13
2022-08-24T06:14:36.701Z,1.85
2022-08-24T06:17:40.517Z,2.03
2022-08-24T06:20:43.298Z,2.30
2022-08-24T06:23:49.674Z,2.10
2022-08-24T06:27:11.623Z,2.08
2022-08-24T06:30:14.150Z,2.65
2022-08-24T06:33:39.938Z,2.95
2022-08-24T06:36:42.393Z,2.40
2022-08-24T06:39:44.886Z,2.72
2022-08-24T06:42:48.694Z,2.15
2022-08-24T06:46:20.839Z,2.47
2022-08-24T06:49:25.883Z,2.70
2022-08-24T06:52:28.636Z,2.80
2022-08-24T06:55:31.597Z,3.10
2022-08-24T06:58:34.937Z,2.40
2022-08-24T07:01:40.785Z,2.28
2022-08-24T07:04:43.122Z,2.90
2022-08-24T07:08:08.768Z,2.85
2022-08-24T07:11:17.813Z,2.47
2022-08-24T07:14:20.398Z,2.95
2022-08-24T07:17:23.718Z,3.45
2022-08-24T07:20:26.051Z,2.92
2022-08-24T07:23:44.630Z,4.22
2022-08-24T07:26:49.001Z,3.35
2022-08-24T07:30:16.166Z,2.25
2022-08-24T07:33:17.263Z,3.17
2022-08-24T07:36:22.467Z,3.45
2022-08-24T07:39:25.669Z,3.55
2022-08-24T07:42:32.015Z,3.15
2022-08-24T07:45:35.895Z,3.60
2022-08-24T07:48:38.321Z,3.40
2022-08-24T07:51:44.856Z,3.78
2022-08-24T07:57:52.343Z,3.92
2022-08-24T08:00:56.136Z,3.65
2022-08-24T08:03:58.385Z,2.67
2022-08-24T08:07:01.914Z,3.72
2022-08-24T08:10:08.316Z,3.97
2022-08-24T08:13:12.062Z,3.88
2022-08-24T08:16:14.233Z,3.47
2022-08-24T08:19:17.507Z,2.97
2022-08-24T08:22:38.571Z,3.17
2022-08-24T08:26:18.317Z,3.58
2022-08-24T08:29:34.312Z,3.67
2022-08-24T08:32:37.191Z,4.97
2022-08-24T08:35:40.707Z,3.90
2022-08-24T08:38:43.194Z,3.90
2022-08-24T08:42:06.488Z,3.90
2022-08-24T08:45:27.662Z,3.88
2022-08-24T08:49:15.519Z,3.95
2022-08-24T08:52:55.045Z,3.47
2022-08-24T08:56:15.414Z,4.47
2022-08-24T08:59:32.881Z,2.95
2022-08-24T09:03:00.074Z,4.07
2022-08-24T09:06:24.651Z,3.97
2022-08-24T09:09:51.933Z,4.50
2022-08-24T09:13:06.151Z,3.60
2022-08-24T09:16:18.176Z,2.90
2022-08-24T09:19:48.834Z,4.55
2022-08-24T09:23:05.062Z,4.32
2022-08-24T09:26:27.093Z,4.15
2022-08-24T09:29:46.113Z,3.55
2022-08-24T09:33:09.258Z,3.38
2022-08-24T09:36:36.976Z,3.85
2022-08-24T09:39:54.381Z,4.25
2022-08-24T09:43:18.006Z,4.82
2022-08-24T09:46:28.863Z,3.88
2022-08-24T09:49:52.832Z,4.03
2022-08-24T09:53:19.781Z,4.15
2022-08-24T09:56:40.026Z,3.97
2022-08-24T09:59:53.969Z,2.30
2022-08-24T10:03:01.847Z,3.63
2022-08-24T10:06:22.548Z,3.33
2022-08-24T10:09:45.746Z,3.55
2022-08-24T10:13:12.435Z,3.28
2022-08-24T10:16:14.939Z,3.38
2022-08-24T10:19:58.844Z,2.88
2022-08-24T10:23:19.506Z,2.88
2022-08-24T10:26:46.051Z,5.03
2022-08-24T10:30:27.808Z,3.35
2022-08-24T10:33:39.489Z,3.80
2022-08-24T10:36:56.774Z,3.22
2022-08-24T10:40:19.472Z,5.25
2022-08-24T10:43:36.715Z,3.40
2022-08-24T10:46:53.514Z,4.28
2022-08-24T10:50:39.557Z,3.88
2022-08-24T10:53:49.278Z,3.30
2022-08-24T10:57:12.270Z,3.60
2022-08-24T11:00:22.948Z,3.28
2022-08-24T11:06:36.388Z,4.22
2022-08-24T11:09:53.472Z,4.57
2022-08-24T11:12:56.227Z,3.67
2022-08-24T11:16:01.907Z,3.05
2022-08-24T11:19:13.302Z,3.70
2022-08-24T11:22:58.543Z,3.78
2022-08-24T11:26:12.918Z,3.47
2022-08-24T11:29:15.117Z,3.20
2022-08-24T11:32:46.486Z,3.33
2022-08-24T11:35:48.627Z,4.18
2022-08-24T11:39:23.996Z,3.75
2022-08-24T11:42:42.214Z,3.72
2022-08-24T11:46:02.831Z,4.60
2022-08-24T11:49:47.041Z,3.83
2022-08-24T11:53:12.519Z,4.53
2022-08-24T11:56:21.546Z,5.22
2022-08-24T12:00:05.742Z,4.43
2022-08-24T12:03:44.520Z,3.33
2022-08-24T12:07:11.570Z,3.35
2022-08-24T12:10:38.345Z,3.30
2022-08-24T12:14:18.598Z,3.55
2022-08-24T12:17:23.782Z,3.90
2022-08-24T12:20:43.608Z,3.97
2022-08-24T12:23:54.724Z,3.40
2022-08-24T12:27:04.011Z,2.83
2022-08-24T12:30:13.700Z,3.42
2022-08-24T12:33:18.864Z,3.20
2022-08-24T12:36:51.692Z,4.78
2022-08-24T12:40:13.998Z,3.58
2022-08-24T12:43:31.481Z,4.18
2022-08-24T12:46:34.852Z,4.57
2022-08-24T12:49:50.822Z,3.63
2022-08-24T12:53:14.658Z,3.38
2022-08-24T12:56:50.224Z,3.00
2022-08-24T12:59:57.521Z,2.80
2022-08-24T13:03:04.895Z,2.33
2022-08-24T13:06:11.925Z,2.90
2022-08-24T13:09:37.084Z,4.10
2022-08-24T13:12:42.338Z,4.15
2022-08-24T13:15:54.479Z,3.60
2022-08-24T13:19:32.090Z,3.75
2022-08-24T13:22:46.773Z,3.63
2022-08-24T13:25:52.011Z,4.03
2022-08-24T13:28:56.861Z,3.88
2022-08-24T13:32:00.430Z,3.50
2022-08-24T13:35:37.267Z,4.05
2022-08-24T13:39:13.461Z,2.38
2022-08-24T13:42:23.538Z,4.68
2022-08-24T13:45:52.705Z,4.22
2022-08-24T13:49:04.782Z,3.70
2022-08-24T13:52:45.367Z,4.45
2022-08-24T13:55:47.480Z,3.50
2022-08-24T13:59:05.411Z,3.35
2022-08-24T14:02:14.871Z,2.97
2022-08-24T14:05:45.869Z,2.35
2022-08-24T14:09:11.537Z,4.68
2022-08-24T14:12:45.824Z,4.13
2022-08-24T14:16:18.541Z,5.13
2022-08-24T14:19:47.422Z,4.53
2022-08-24T14:23:11.420Z,3.85
2022-08-24T14:26:37.042Z,3.30
2022-08-24T14:29:41.986Z,3.90
2022-08-24T14:33:08.265Z,3.38
2022-08-24T14:36:24.834Z,4.47
2022-08-24T14:39:39.023Z,4.07
2022-08-24T14:43:03.877Z,3.35
2022-08-24T14:46:21.095Z,4.00
2022-08-24T14:49:39.135Z,3.60
2022-08-24T14:52:51.208Z,4.37
2022-08-24T14:56:25.210Z,3.08
2022-08-24T14:59:38.234Z,4.88
2022-08-24T15:02:55.864Z,3.78
2022-08-24T15:06:26.234Z,3.63
2022-08-24T15:09:36.628Z,4.60
2022-08-24T15:12:44.293Z,5.10
2022-08-24T15:15:55.869Z,3.28
2022-08-24T15:19:06.595Z,4.28
2022-08-24T15:22:21.994Z,4.35
2022-08-24T15:25:37.076Z,4.13
2022-08-24T15:28:55.271Z,4.22
2022-08-24T15:32:07.695Z,4.95
2022-08-24T15:35:28.436Z,4.93
2022-08-24T15:38:30.467Z,4.32
2022-08-24T15:41:38.141Z,4.18
2022-08-24T15:44:43.848Z,4.53
2022-08-24T15:47:51.905Z,4.68
2022-08-24T15:53:58.438Z,4.68
2022-08-24T15:57:18.680Z,3.65
2022-08-24T16:00:55.942Z,4.70
2022-08-24T16:04:01.257Z,5.18
2022-08-24T16:07:03.615Z,3.63
2022-08-24T16:10:12.408Z,4.68
2022-08-24T16:13:20.930Z,5.03
2022-08-24T16:16:33.594Z,5.57
2022-08-24T16:19:35.699Z,5.28
2022-08-24T16:22:58.469Z,4.43
2022-08-24T16:26:22.552Z,4.13
2022-08-24T16:29:41.445Z,3.58
2022-08-24T16:32:57.933Z,4.63
2022-08-24T16:36:03.917Z,5.05
2022-08-24T16:39:06.167Z,4.85
2022-08-24T16:42:15.935Z,3.83
2022-08-24T16:45:21.813Z,5.25
2022-08-24T16:48:23.946Z,5.90
2022-08-24T16:51:26.245Z,4.32
2022-08-24T16:54:28.699Z,3.50
2022-08-24T16:57:36.522Z,3.95
2022-08-24T17:00:38.633Z,5.15
2022-08-24T17:03:41.081Z,3.58
2022-08-24T17:06:43.481Z,4.30
2022-08-24T17:09:47.333Z,3.75
2022-08-24T17:12:49.800Z,4.43
2022-08-24T17:15:53.823Z,5.75
2022-08-24T17:18:59.606Z,3.05
2022-08-24T17:22:01.794Z,3.80
2022-08-24T17:25:05.345Z,3.22
2022-08-24T17:28:10.559Z,3.97
2022-08-24T17:31:13.640Z,3.97
2022-08-24T17:34:16.379Z,4.53
2022-08-24T17:37:19.111Z,3.50
2022-08-24T17:40:25.124Z,3.50
2022-08-24T17:43:27.527Z,5.82
2022-08-24T17:46:29.819Z,3.88
2022-08-24T17:49:32.927Z,3.83
2022-08-24T17:52:35.051Z,4.80
2022-08-24T17:55:37.149Z,3.97
2022-08-24T17:58:59.346Z,3.97
2022-08-24T18:02:07.355Z,5.10
2022-08-24T18:05:12.229Z,5.65
2022-08-24T18:08:14.565Z,5.95
2022-08-24T18:11:16.919Z,5.07
2022-08-24T18:14:19.194Z,5.05
2022-08-24T18:17:39.033Z,4.65
2022-08-24T18:20:42.085Z,4.70
2022-08-24T18:23:44.381Z,4.22
2022-08-24T18:26:48.683Z,4.03
2022-08-24T18:29:54.839Z,4.03
2022-08-24T18:32:57.983Z,4.68
2022-08-24T18:36:00.213Z,4.63
2022-08-24T18:39:06.884Z,4.13
2022-08-24T18:42:11.028Z,3.45
2022-08-24T18:45:13.276Z,3.63
2022-08-24T18:48:15.651Z,4.22
2022-08-24T18:51:20.314Z,4.85
2022-08-24T18:54:26.544Z,4.20
2022-08-24T18:57:28.984Z,5.07
2022-08-24T19:00:31.620Z,4.22
2022-08-24T19:03:34.554Z,4.55
2022-08-24T19:06:36.670Z,4.13
2022-08-24T19:09:38.801Z,5.40
2022-08-24T19:12:47.033Z,4.10
2022-08-24T19:15:49.811Z,4.88
2022-08-24T19:18:52.344Z,4.28
2022-08-24T19:21:54.695Z,4.13
2022-08-24T19:24:58.602Z,4.57
2022-08-24T19:28:01.529Z,4.40
2022-08-24T19:31:07.516Z,4.15
2022-08-24T19:34:10.224Z,4.63
2022-08-24T19:37:15.533Z,3.88
2022-08-24T19:40:21.543Z,4.75
2022-08-24T19:43:28.715Z,5.40
2022-08-24T19:46:31.496Z,5.10
2022-08-24T19:49:34.574Z,4.40
2022-08-24T19:52:38.270Z,5.60
2022-08-24T19:55:40.499Z,4.63
2022-08-24T19:58:59.650Z,5.28
2022-08-24T20:02:01.848Z,4.80
2022-08-24T20:05:04.197Z,5.18
2022-08-24T20:08:06.400Z,5.65
2022-08-24T20:11:09.340Z,4.95
2022-08-24T20:14:11.371Z,4.63
2022-08-24T20:17:13.543Z,4.68
2022-08-24T20:20:19.864Z,4.90
2022-08-24T20:23:22.099Z,4.22
2022-08-24T20:26:29.768Z,5.50
2022-08-24T20:29:32.029Z,4.57
2022-08-24T20:32:34.403Z,4.38
2022-08-24T20:35:37.149Z,4.78
2022-08-24T20:38:40.513Z,4.57
2022-08-24T20:41:44.293Z,4.38
2022-08-24T20:44:46.370Z,5.03
2022-08-24T20:47:51.490Z,4.75
2022-08-24T20:50:54.019Z,5.57
2022-08-24T20:53:56.153Z,4.28
2022-08-24T20:56:58.859Z,4.50
2022-08-24T21:00:00.957Z,4.32
2022-08-24T21:03:03.283Z,4.35
2022-08-24T21:06:07.253Z,5.18
2022-08-24T21:09:14.062Z,4.75
2022-08-24T21:12:16.628Z,4.97
2022-08-24T21:15:19.149Z,4.55
2022-08-24T21:18:21.526Z,4.38
2022-08-24T21:21:23.652Z,3.78
2022-08-24T21:24:26.105Z,4.47
2022-08-24T21:27:28.347Z,5.38
2022-08-24T21:30:30.959Z,4.93
2022-08-24T21:33:55.808Z,5.47
2022-08-24T21:36:58.158Z,4.40
2022-08-24T21:40:02.198Z,4.70
2022-08-24T21:43:09.283Z,4.22
2022-08-24T21:46:18.038Z,4.03
2022-08-24T21:49:20.897Z,5.50
2022-08-24T21:52:23.283Z,3.80
2022-08-24T21:55:27.694Z,4.25
2022-08-24T21:58:29.977Z,4.25
2022-08-24T22:01:32.737Z,4.97
2022-08-24T22:04:34.945Z,5.03
2022-08-24T22:07:37.718Z,3.70
2022-08-24T22:10:39.784Z,3.70
2022-08-24T22:13:42.760Z,3.47
2022-08-24T22:16:45.491Z,4.07
2022-08-24T22:19:47.528Z,4.20
2022-08-24T22:22:49.574Z,4.20
2022-08-24T22:25:53.598Z,3.83
2022-08-24T22:28:56.882Z,3.42
2022-08-24T22:31:59.052Z,3.53
2022-08-24T22:35:01.159Z,3.42
2022-08-24T22:38:03.458Z,3.45
2022-08-24T22:41:08.003Z,4.90
2022-08-24T22:44:19.231Z,4.03
2022-08-24T22:47:21.297Z,3.78
2022-08-24T22:50:23.434Z,3.75
2022-08-24T22:53:25.872Z,3.72
2022-08-24T22:56:31.217Z,3.88
2022-08-24T22:59:40.101Z,3.50
2022-08-24T23:02:42.337Z,3.72
2022-08-24T23:05:44.646Z,3.53
2022-08-24T23:08:46.782Z,3.30
2022-08-24T23:11:48.995Z,3.78
2022-08-24T23:14:52.462Z,2.88
2022-08-24T23:17:54.606Z,2.53
2022-08-24T23:20:57.084Z,3.33
2022-08-24T23:23:59.210Z,2.47
2022-08-24T23:27:02.784Z,3.25
2022-08-24T23:30:07.766Z,3.25
2022-08-24T23:33:09.935Z,2.92
2022-08-24T23:36:16.123Z,3.05
2022-08-24T23:39:19.253Z,3.58
2022-08-24T23:42:21.395Z,3.10
2022-08-24T23:45:28.493Z,3.03
2022-08-24T23:48:33.527Z,3.67
2022-08-24T23:51:36.564Z,3.63
2022-08-24T23:54:38.711Z,3.83
2022-08-24T23:57:41.276Z,3.10
